sensor_id;sensor_type;location;lat;lon;timestamp;temperature;humidity
12557;DHT22;6344;49.932;8.308;2023-03-05T00:01:11;4.90;99.90
12557;DHT22;6344;49.932;8.308;2023-03-05T00:03:38;5.00;99.90
12557;DHT22;6344;49.932;8.308;2023-03-05T00:06:06;5.00;99.90
12557;DHT22;6344;49.932;8.308;2023-03-05T00:08:33;4.90;99.90
12557;DHT22;6344;49.932;8.308;2023-03-05T00:11:02;4.90;99.90
12557;DHT22;6344;49.932;8.308;2023-03-05T00:13:29;4.90;99.90
12557;DHT22;6344;49.932;8.308;2023-03-05T00:15:57;4.90;99.90
12557;DHT22;6344;49.932;8.308;2023-03-05T00:18:23;4.90;99.90
12557;DHT22;6344;49.932;8.308;2023-03-05T00:20:50;4.80;99.90
12557;DHT22;6344;49.932;8.308;2023-03-05T00:23:17;4.90;99.90
12557;DHT22;6344;49.932;8.308;2023-03-05T00:25:43;4.90;99.90
12557;DHT22;6344;49.932;8.308;2023-03-05T00:28:11;4.90;99.90
12557;DHT22;6344;49.932;8.308;2023-03-05T00:30:38;5.00;99.90
12557;DHT22;6344;49.932;8.308;2023-03-05T00:33:06;5.00;99.90
12557;DHT22;6344;49.932;8.308;2023-03-05T00:35:38;5.00;99.90
12557;DHT22;6344;49.932;8.308;2023-03-05T00:38:05;5.00;99.90
12557;DHT22;6344;49.932;8.308;2023-03-05T00:40:34;4.90;99.90
12557;DHT22;6344;49.932;8.308;2023-03-05T00:43:01;4.90;99.90
12557;DHT22;6344;49.932;8.308;2023-03-05T00:45:27;4.90;99.90
12557;DHT22;6344;49.932;8.308;2023-03-05T00:47:54;4.90;99.90
12557;DHT22;6344;49.932;8.308;2023-03-05T00:50:22;4.90;99.90
12557;DHT22;6344;49.932;8.308;2023-03-05T00:52:49;4.90;99.90
12557;DHT22;6344;49.932;8.308;2023-03-05T00:55:16;4.90;99.90
12557;DHT22;6344;49.932;8.308;2023-03-05T00:57:43;4.80;99.90
12557;DHT22;6344;49.932;8.308;2023-03-05T01:00:12;4.80;99.90
12557;DHT22;6344;49.932;8.308;2023-03-05T01:02:39;4.80;99.90
12557;DHT22;6344;49.932;8.308;2023-03-05T01:05:06;4.80;99.90
12557;DHT22;6344;49.932;8.308;2023-03-05T01:07:34;4.80;99.90
12557;DHT22;6344;49.932;8.308;2023-03-05T01:10:01;4.90;99.90
12557;DHT22;6344;49.932;8.308;2023-03-05T01:12:28;5.00;99.90
12557;DHT22;6344;49.932;8.308;2023-03-05T01:14:54;5.00;88.90
12557;DHT22;6344;49.932;8.308;2023-03-05T01:17:21;5.00;70.80
12557;DHT22;6344;49.932;8.308;2023-03-05T01:19:47;4.90;60.20
12557;DHT22;6344;49.932;8.308;2023-03-05T01:22:14;5.00;47.10
12557;DHT22;6344;49.932;8.308;2023-03-05T01:24:42;5.00;44.70
12557;DHT22;6344;49.932;8.308;2023-03-05T01:27:09;4.90;59.10
12557;DHT22;6344;49.932;8.308;2023-03-05T01:29:36;4.80;99.90
12557;DHT22;6344;49.932;8.308;2023-03-05T01:32:02;4.80;99.90
12557;DHT22;6344;49.932;8.308;2023-03-05T01:34:29;4.80;99.90
12557;DHT22;6344;49.932;8.308;2023-03-05T01:36:56;4.80;99.90
12557;DHT22;6344;49.932;8.308;2023-03-05T01:39:22;4.80;99.90
12557;DHT22;6344;49.932;8.308;2023-03-05T01:41:50;4.80;99.90
12557;DHT22;6344;49.932;8.308;2023-03-05T01:44:20;4.80;99.90
12557;DHT22;6344;49.932;8.308;2023-03-05T01:46:48;4.80;99.90
12557;DHT22;6344;49.932;8.308;2023-03-05T01:49:20;4.90;94.50
12557;DHT22;6344;49.932;8.308;2023-03-05T01:52:07;4.90;82.10
12557;DHT22;6344;49.932;8.308;2023-03-05T01:54:39;4.90;86.10
12557;DHT22;6344;49.932;8.308;2023-03-05T01:57:11;4.90;66.60
12557;DHT22;6344;49.932;8.308;2023-03-05T01:59:40;5.00;63.40
12557;DHT22;6344;49.932;8.308;2023-03-05T02:02:08;4.90;75.50
12557;DHT22;6344;49.932;8.308;2023-03-05T02:04:38;4.80;80.00
12557;DHT22;6344;49.932;8.308;2023-03-05T02:07:08;4.80;72.50
12557;DHT22;6344;49.932;8.308;2023-03-05T02:09:37;4.80;65.60
12557;DHT22;6344;49.932;8.308;2023-03-05T02:12:04;4.80;66.90
12557;DHT22;6344;49.932;8.308;2023-03-05T02:14:32;4.90;52.90
12557;DHT22;6344;49.932;8.308;2023-03-05T02:16:59;4.90;48.50
12557;DHT22;6344;49.932;8.308;2023-03-05T02:19:26;5.00;48.10
12557;DHT22;6344;49.932;8.308;2023-03-05T02:21:54;5.00;43.90
12557;DHT22;6344;49.932;8.308;2023-03-05T02:24:33;4.80;58.00
12557;DHT22;6344;49.932;8.308;2023-03-05T02:27:00;4.70;77.80
12557;DHT22;6344;49.932;8.308;2023-03-05T02:29:28;4.70;90.80
12557;DHT22;6344;49.932;8.308;2023-03-05T02:31:55;4.80;67.80
12557;DHT22;6344;49.932;8.308;2023-03-05T02:34:22;4.70;72.20
12557;DHT22;6344;49.932;8.308;2023-03-05T02:36:49;4.70;80.50
12557;DHT22;6344;49.932;8.308;2023-03-05T02:39:17;4.60;81.40
12557;DHT22;6344;49.932;8.308;2023-03-05T02:41:43;4.60;86.30
12557;DHT22;6344;49.932;8.308;2023-03-05T02:44:10;4.60;82.40
12557;DHT22;6344;49.932;8.308;2023-03-05T02:46:37;4.60;82.00
12557;DHT22;6344;49.932;8.308;2023-03-05T02:49:03;4.60;80.20
12557;DHT22;6344;49.932;8.308;2023-03-05T02:51:30;4.60;68.40
12557;DHT22;6344;49.932;8.308;2023-03-05T02:53:57;4.60;61.00
12557;DHT22;6344;49.932;8.308;2023-03-05T02:56:25;4.60;64.30
12557;DHT22;6344;49.932;8.308;2023-03-05T02:58:51;4.60;67.80
12557;DHT22;6344;49.932;8.308;2023-03-05T03:01:18;4.50;74.10
12557;DHT22;6344;49.932;8.308;2023-03-05T03:03:44;4.50;86.40
12557;DHT22;6344;49.932;8.308;2023-03-05T03:06:11;4.50;84.90
12557;DHT22;6344;49.932;8.308;2023-03-05T03:08:37;4.50;65.00
12557;DHT22;6344;49.932;8.308;2023-03-05T03:11:06;4.50;62.50
12557;DHT22;6344;49.932;8.308;2023-03-05T03:13:34;4.50;63.50
12557;DHT22;6344;49.932;8.308;2023-03-05T03:16:02;4.60;52.50
12557;DHT22;6344;49.932;8.308;2023-03-05T03:18:28;4.70;34.30
12557;DHT22;6344;49.932;8.308;2023-03-05T03:20:55;4.60;20.50
12557;DHT22;6344;49.932;8.308;2023-03-05T03:23:22;4.70;5.10
12557;DHT22;6344;49.932;8.308;2023-03-05T03:25:48;4.70;4.80
12557;DHT22;6344;49.932;8.308;2023-03-05T03:28:15;4.70;1.00
12557;DHT22;6344;49.932;8.308;2023-03-05T03:30:43;4.60;7.70
12557;DHT22;6344;49.932;8.308;2023-03-05T03:33:10;4.60;8.60
12557;DHT22;6344;49.932;8.308;2023-03-05T03:35:37;4.50;7.40
12557;DHT22;6344;49.932;8.308;2023-03-05T03:38:03;4.50;6.60
12557;DHT22;6344;49.932;8.308;2023-03-05T03:40:30;4.50;1.60
12557;DHT22;6344;49.932;8.308;2023-03-05T03:42:57;4.50;1.00
12557;DHT22;6344;49.932;8.308;2023-03-05T03:45:24;4.50;1.00
12557;DHT22;6344;49.932;8.308;2023-03-05T03:47:52;4.50;1.00
12557;DHT22;6344;49.932;8.308;2023-03-05T03:50:18;4.50;1.00
12557;DHT22;6344;49.932;8.308;2023-03-05T03:52:49;4.50;1.00
12557;DHT22;6344;49.932;8.308;2023-03-05T03:55:16;4.50;1.00
12557;DHT22;6344;49.932;8.308;2023-03-05T03:57:42;4.40;1.00
12557;DHT22;6344;49.932;8.308;2023-03-05T04:00:10;4.40;1.00
12557;DHT22;6344;49.932;8.308;2023-03-05T04:02:37;4.40;1.00
12557;DHT22;6344;49.932;8.308;2023-03-05T04:05:06;4.40;1.30
12557;DHT22;6344;49.932;8.308;2023-03-05T04:07:33;4.40;1.00
12557;DHT22;6344;49.932;8.308;2023-03-05T04:09:59;4.40;1.00
12557;DHT22;6344;49.932;8.308;2023-03-05T04:12:26;4.30;3.80
12557;DHT22;6344;49.932;8.308;2023-03-05T04:14:53;4.30;7.10
12557;DHT22;6344;49.932;8.308;2023-03-05T04:17:19;4.20;16.40
12557;DHT22;6344;49.932;8.308;2023-03-05T04:19:46;4.20;20.40
12557;DHT22;6344;49.932;8.308;2023-03-05T04:22:15;4.20;23.50
12557;DHT22;6344;49.932;8.308;2023-03-05T04:24:42;4.20;23.00
12557;DHT22;6344;49.932;8.308;2023-03-05T04:27:09;4.20;24.10
12557;DHT22;6344;49.932;8.308;2023-03-05T04:29:36;4.20;25.00
12557;DHT22;6344;49.932;8.308;2023-03-05T04:32:03;4.20;31.30
12557;DHT22;6344;49.932;8.308;2023-03-05T04:34:30;4.20;38.60
12557;DHT22;6344;49.932;8.308;2023-03-05T04:36:57;4.30;43.90
12557;DHT22;6344;49.932;8.308;2023-03-05T04:39:25;4.30;49.50
12557;DHT22;6344;49.932;8.308;2023-03-05T04:41:52;4.30;56.50
12557;DHT22;6344;49.932;8.308;2023-03-05T04:44:18;4.30;67.40
12557;DHT22;6344;49.932;8.308;2023-03-05T04:46:47;4.30;89.70
12557;DHT22;6344;49.932;8.308;2023-03-05T04:49:14;4.30;98.90
12557;DHT22;6344;49.932;8.308;2023-03-05T04:51:41;4.30;99.90
12557;DHT22;6344;49.932;8.308;2023-03-05T04:54:07;4.30;99.90
12557;DHT22;6344;49.932;8.308;2023-03-05T04:56:35;4.20;99.90
12557;DHT22;6344;49.932;8.308;2023-03-05T04:59:02;4.30;99.90
12557;DHT22;6344;49.932;8.308;2023-03-05T05:01:28;4.20;99.90
12557;DHT22;6344;49.932;8.308;2023-03-05T05:03:55;4.20;99.90
12557;DHT22;6344;49.932;8.308;2023-03-05T05:06:22;4.10;99.90
12557;DHT22;6344;49.932;8.308;2023-03-05T05:08:48;4.20;99.90
12557;DHT22;6344;49.932;8.308;2023-03-05T05:11:15;4.10;99.90
12557;DHT22;6344;49.932;8.308;2023-03-05T05:13:43;4.10;99.90
12557;DHT22;6344;49.932;8.308;2023-03-05T05:16:10;4.10;99.90
12557;DHT22;6344;49.932;8.308;2023-03-05T05:18:37;4.10;99.90
12557;DHT22;6344;49.932;8.308;2023-03-05T05:21:06;4.00;99.90
12557;DHT22;6344;49.932;8.308;2023-03-05T05:23:34;4.00;99.90
12557;DHT22;6344;49.932;8.308;2023-03-05T05:26:02;4.00;99.90
12557;DHT22;6344;49.932;8.308;2023-03-05T05:28:30;4.00;99.90
12557;DHT22;6344;49.932;8.308;2023-03-05T05:30:57;3.90;99.90
12557;DHT22;6344;49.932;8.308;2023-03-05T05:33:25;3.90;99.90
12557;DHT22;6344;49.932;8.308;2023-03-05T05:35:52;3.90;99.90
12557;DHT22;6344;49.932;8.308;2023-03-05T05:38:18;3.90;99.90
12557;DHT22;6344;49.932;8.308;2023-03-05T05:40:45;3.90;99.90
12557;DHT22;6344;49.932;8.308;2023-03-05T05:43:12;3.80;99.90
12557;DHT22;6344;49.932;8.308;2023-03-05T05:45:38;3.90;99.90
12557;DHT22;6344;49.932;8.308;2023-03-05T05:48:06;3.80;99.90
12557;DHT22;6344;49.932;8.308;2023-03-05T05:50:33;3.80;99.90
12557;DHT22;6344;49.932;8.308;2023-03-05T05:53:00;3.70;99.90
12557;DHT22;6344;49.932;8.308;2023-03-05T05:55:26;3.70;99.90
12557;DHT22;6344;49.932;8.308;2023-03-05T05:57:53;3.70;99.90
12557;DHT22;6344;49.932;8.308;2023-03-05T06:00:20;3.70;99.90
12557;DHT22;6344;49.932;8.308;2023-03-05T06:02:47;3.70;99.90
12557;DHT22;6344;49.932;8.308;2023-03-05T06:05:15;3.70;99.90
12557;DHT22;6344;49.932;8.308;2023-03-05T06:07:42;3.60;99.90
12557;DHT22;6344;49.932;8.308;2023-03-05T06:10:10;3.60;99.90
12557;DHT22;6344;49.932;8.308;2023-03-05T06:12:36;3.60;99.90
12557;DHT22;6344;49.932;8.308;2023-03-05T06:15:04;3.60;99.90
12557;DHT22;6344;49.932;8.308;2023-03-05T06:17:30;3.60;99.90
12557;DHT22;6344;49.932;8.308;2023-03-05T06:19:57;3.50;99.90
12557;DHT22;6344;49.932;8.308;2023-03-05T06:22:26;3.50;99.90
12557;DHT22;6344;49.932;8.308;2023-03-05T06:24:53;3.50;99.90
12557;DHT22;6344;49.932;8.308;2023-03-05T06:27:19;3.50;99.90
12557;DHT22;6344;49.932;8.308;2023-03-05T06:29:46;3.50;99.90
12557;DHT22;6344;49.932;8.308;2023-03-05T06:32:13;3.50;99.90
12557;DHT22;6344;49.932;8.308;2023-03-05T06:34:40;3.50;99.90
12557;DHT22;6344;49.932;8.308;2023-03-05T06:37:06;3.50;99.90
12557;DHT22;6344;49.932;8.308;2023-03-05T06:39:34;3.60;99.90
12557;DHT22;6344;49.932;8.308;2023-03-05T06:42:01;3.60;99.90
12557;DHT22;6344;49.932;8.308;2023-03-05T06:44:28;3.60;99.90
12557;DHT22;6344;49.932;8.308;2023-03-05T06:46:54;3.60;99.90
12557;DHT22;6344;49.932;8.308;2023-03-05T06:49:21;3.70;99.90
12557;DHT22;6344;49.932;8.308;2023-03-05T06:51:48;3.70;99.90
12557;DHT22;6344;49.932;8.308;2023-03-05T06:54:16;3.70;99.90
12557;DHT22;6344;49.932;8.308;2023-03-05T06:56:45;3.70;99.90
12557;DHT22;6344;49.932;8.308;2023-03-05T06:59:14;3.80;99.90
12557;DHT22;6344;49.932;8.308;2023-03-05T07:01:41;3.80;99.90
12557;DHT22;6344;49.932;8.308;2023-03-05T07:04:08;3.80;99.90
12557;DHT22;6344;49.932;8.308;2023-03-05T07:06:36;3.90;99.90
12557;DHT22;6344;49.932;8.308;2023-03-05T07:09:04;4.00;99.90
12557;DHT22;6344;49.932;8.308;2023-03-05T07:11:31;4.00;99.90
12557;DHT22;6344;49.932;8.308;2023-03-05T07:14:00;4.00;99.90
12557;DHT22;6344;49.932;8.308;2023-03-05T07:16:29;4.00;81.10
12557;DHT22;6344;49.932;8.308;2023-03-05T07:18:57;4.10;61.00
12557;DHT22;6344;49.932;8.308;2023-03-05T07:21:26;4.20;44.20
12557;DHT22;6344;49.932;8.308;2023-03-05T07:23:53;4.20;26.70
12557;DHT22;6344;49.932;8.308;2023-03-05T07:26:20;4.30;25.20
12557;DHT22;6344;49.932;8.308;2023-03-05T07:28:47;4.30;19.40
12557;DHT22;6344;49.932;8.308;2023-03-05T07:31:17;4.40;10.00
12557;DHT22;6344;49.932;8.308;2023-03-05T07:33:44;4.50;1.00
12557;DHT22;6344;49.932;8.308;2023-03-05T07:36:11;4.50;1.00
12557;DHT22;6344;49.932;8.308;2023-03-05T07:38:38;4.60;1.00
12557;DHT22;6344;49.932;8.308;2023-03-05T07:41:07;4.60;1.00
12557;DHT22;6344;49.932;8.308;2023-03-05T07:43:34;4.70;1.00
12557;DHT22;6344;49.932;8.308;2023-03-05T07:46:03;4.80;1.00
12557;DHT22;6344;49.932;8.308;2023-03-05T07:48:32;4.80;1.00
12557;DHT22;6344;49.932;8.308;2023-03-05T07:51:00;4.90;1.00
12557;DHT22;6344;49.932;8.308;2023-03-05T07:53:27;4.90;1.00
12557;DHT22;6344;49.932;8.308;2023-03-05T07:55:53;5.00;1.00
12557;DHT22;6344;49.932;8.308;2023-03-05T07:58:20;5.00;1.00
12557;DHT22;6344;49.932;8.308;2023-03-05T08:00:47;4.90;1.00
12557;DHT22;6344;49.932;8.308;2023-03-05T08:03:13;4.90;1.00
12557;DHT22;6344;49.932;8.308;2023-03-05T08:05:41;4.90;1.00
12557;DHT22;6344;49.932;8.308;2023-03-05T08:08:08;5.00;1.00
12557;DHT22;6344;49.932;8.308;2023-03-05T08:10:36;5.00;1.00
12557;DHT22;6344;49.932;8.308;2023-03-05T08:13:03;5.00;1.00
12557;DHT22;6344;49.932;8.308;2023-03-05T08:15:29;5.10;1.00
12557;DHT22;6344;49.932;8.308;2023-03-05T08:17:57;5.10;1.00
12557;DHT22;6344;49.932;8.308;2023-03-05T08:20:24;5.10;1.00
12557;DHT22;6344;49.932;8.308;2023-03-05T08:22:52;5.20;1.00
12557;DHT22;6344;49.932;8.308;2023-03-05T08:25:18;5.20;1.00
12557;DHT22;6344;49.932;8.308;2023-03-05T08:27:46;5.10;1.00
12557;DHT22;6344;49.932;8.308;2023-03-05T08:30:15;5.10;1.00
12557;DHT22;6344;49.932;8.308;2023-03-05T08:32:42;5.30;1.00
12557;DHT22;6344;49.932;8.308;2023-03-05T08:35:09;5.20;1.00
12557;DHT22;6344;49.932;8.308;2023-03-05T08:37:36;5.10;1.00
12557;DHT22;6344;49.932;8.308;2023-03-05T08:40:05;5.00;1.00
12557;DHT22;6344;49.932;8.308;2023-03-05T08:42:32;5.10;1.00
12557;DHT22;6344;49.932;8.308;2023-03-05T08:44:58;5.10;1.00
12557;DHT22;6344;49.932;8.308;2023-03-05T08:47:25;5.10;1.00
12557;DHT22;6344;49.932;8.308;2023-03-05T08:49:52;5.20;1.00
12557;DHT22;6344;49.932;8.308;2023-03-05T08:52:20;5.30;1.00
12557;DHT22;6344;49.932;8.308;2023-03-05T08:54:47;5.40;1.00
12557;DHT22;6344;49.932;8.308;2023-03-05T08:57:15;5.50;1.00
12557;DHT22;6344;49.932;8.308;2023-03-05T08:59:41;5.50;1.00
12557;DHT22;6344;49.932;8.308;2023-03-05T09:02:09;5.40;1.00
12557;DHT22;6344;49.932;8.308;2023-03-05T09:04:36;5.30;1.00
12557;DHT22;6344;49.932;8.308;2023-03-05T09:07:03;5.40;1.00
12557;DHT22;6344;49.932;8.308;2023-03-05T09:09:30;5.30;1.00
12557;DHT22;6344;49.932;8.308;2023-03-05T09:11:57;5.40;1.00
12557;DHT22;6344;49.932;8.308;2023-03-05T09:14:25;5.40;1.00
12557;DHT22;6344;49.932;8.308;2023-03-05T09:16:52;5.60;1.00
12557;DHT22;6344;49.932;8.308;2023-03-05T09:19:19;5.50;1.00
12557;DHT22;6344;49.932;8.308;2023-03-05T09:21:46;5.70;1.00
12557;DHT22;6344;49.932;8.308;2023-03-05T09:24:13;5.70;1.00
12557;DHT22;6344;49.932;8.308;2023-03-05T09:26:40;5.70;1.00
12557;DHT22;6344;49.932;8.308;2023-03-05T09:29:07;5.60;1.00
12557;DHT22;6344;49.932;8.308;2023-03-05T09:31:35;5.60;1.00
12557;DHT22;6344;49.932;8.308;2023-03-05T09:34:01;5.60;1.00
12557;DHT22;6344;49.932;8.308;2023-03-05T09:36:29;5.60;1.00
12557;DHT22;6344;49.932;8.308;2023-03-05T09:38:56;5.40;1.00
12557;DHT22;6344;49.932;8.308;2023-03-05T09:41:32;5.50;1.00
12557;DHT22;6344;49.932;8.308;2023-03-05T09:44:10;5.40;1.00
12557;DHT22;6344;49.932;8.308;2023-03-05T09:46:50;5.70;1.00
12557;DHT22;6344;49.932;8.308;2023-03-05T09:49:23;5.60;1.00
12557;DHT22;6344;49.932;8.308;2023-03-05T09:52:01;5.50;1.00
12557;DHT22;6344;49.932;8.308;2023-03-05T09:54:34;5.50;1.00
12557;DHT22;6344;49.932;8.308;2023-03-05T09:57:03;5.40;1.00
12557;DHT22;6344;49.932;8.308;2023-03-05T09:59:45;5.40;1.00
12557;DHT22;6344;49.932;8.308;2023-03-05T10:02:18;5.50;1.00
12557;DHT22;6344;49.932;8.308;2023-03-05T10:04:49;5.60;1.00
12557;DHT22;6344;49.932;8.308;2023-03-05T10:07:20;5.60;1.00
12557;DHT22;6344;49.932;8.308;2023-03-05T10:09:55;5.80;1.00
12557;DHT22;6344;49.932;8.308;2023-03-05T10:12:29;5.70;1.00
12557;DHT22;6344;49.932;8.308;2023-03-05T10:15:00;5.60;1.00
12557;DHT22;6344;49.932;8.308;2023-03-05T10:17:52;5.70;1.00
12557;DHT22;6344;49.932;8.308;2023-03-05T10:20:51;5.80;1.00
12557;DHT22;6344;49.932;8.308;2023-03-05T10:23:49;5.90;1.00
12557;DHT22;6344;49.932;8.308;2023-03-05T10:26:26;5.90;1.00
12557;DHT22;6344;49.932;8.308;2023-03-05T10:29:09;6.20;1.00
12557;DHT22;6344;49.932;8.308;2023-03-05T10:31:55;6.20;1.00
12557;DHT22;6344;49.932;8.308;2023-03-05T10:34:37;6.30;1.00
12557;DHT22;6344;49.932;8.308;2023-03-05T10:40:09;6.30;1.00
12557;DHT22;6344;49.932;8.308;2023-03-05T10:42:45;6.50;1.00
12557;DHT22;6344;49.932;8.308;2023-03-05T10:45:16;6.50;1.00
12557;DHT22;6344;49.932;8.308;2023-03-05T10:47:46;6.40;1.00
12557;DHT22;6344;49.932;8.308;2023-03-05T10:50:18;6.30;1.00
12557;DHT22;6344;49.932;8.308;2023-03-05T10:52:49;6.40;1.00
12557;DHT22;6344;49.932;8.308;2023-03-05T10:55:18;6.50;1.00
12557;DHT22;6344;49.932;8.308;2023-03-05T10:57:45;6.60;1.00
12557;DHT22;6344;49.932;8.308;2023-03-05T11:00:18;6.50;1.00
12557;DHT22;6344;49.932;8.308;2023-03-05T11:02:59;6.50;1.00
12557;DHT22;6344;49.932;8.308;2023-03-05T11:05:45;6.60;1.00
12557;DHT22;6344;49.932;8.308;2023-03-05T11:08:28;6.70;1.00
12557;DHT22;6344;49.932;8.308;2023-03-05T11:11:03;6.50;1.00
12557;DHT22;6344;49.932;8.308;2023-03-05T11:13:31;6.40;1.00
12557;DHT22;6344;49.932;8.308;2023-03-05T11:15:59;6.50;1.00
12557;DHT22;6344;49.932;8.308;2023-03-05T11:18:26;6.50;1.00
12557;DHT22;6344;49.932;8.308;2023-03-05T11:21:08;6.30;1.00
12557;DHT22;6344;49.932;8.308;2023-03-05T11:23:36;6.40;1.00
12557;DHT22;6344;49.932;8.308;2023-03-05T11:26:04;6.30;1.00
12557;DHT22;6344;49.932;8.308;2023-03-05T11:28:55;6.30;1.00
12557;DHT22;6344;49.932;8.308;2023-03-05T11:31:27;6.50;1.00
12557;DHT22;6344;49.932;8.308;2023-03-05T11:33:59;6.60;1.00
12557;DHT22;6344;49.932;8.308;2023-03-05T11:36:30;6.70;1.00
12557;DHT22;6344;49.932;8.308;2023-03-05T11:38:58;6.50;1.00
12557;DHT22;6344;49.932;8.308;2023-03-05T11:41:37;6.60;1.00
12557;DHT22;6344;49.932;8.308;2023-03-05T11:44:10;6.50;1.00
12557;DHT22;6344;49.932;8.308;2023-03-05T11:46:42;6.40;1.00
12557;DHT22;6344;49.932;8.308;2023-03-05T11:49:13;6.30;1.00
12557;DHT22;6344;49.932;8.308;2023-03-05T11:51:46;6.40;1.00
12557;DHT22;6344;49.932;8.308;2023-03-05T11:54:20;6.40;1.00
12557;DHT22;6344;49.932;8.308;2023-03-05T11:56:48;6.60;1.00
12557;DHT22;6344;49.932;8.308;2023-03-05T11:59:19;6.80;1.00
12557;DHT22;6344;49.932;8.308;2023-03-05T12:01:51;6.90;1.00
12557;DHT22;6344;49.932;8.308;2023-03-05T12:04:18;6.90;1.00
12557;DHT22;6344;49.932;8.308;2023-03-05T12:06:48;6.80;1.00
12557;DHT22;6344;49.932;8.308;2023-03-05T12:09:22;6.80;1.00
12557;DHT22;6344;49.932;8.308;2023-03-05T12:11:53;6.80;1.00
12557;DHT22;6344;49.932;8.308;2023-03-05T12:14:26;6.70;1.00
12557;DHT22;6344;49.932;8.308;2023-03-05T12:16:59;6.70;1.00
12557;DHT22;6344;49.932;8.308;2023-03-05T12:19:45;6.70;1.00
12557;DHT22;6344;49.932;8.308;2023-03-05T12:22:20;6.70;1.00
12557;DHT22;6344;49.932;8.308;2023-03-05T12:24:47;7.00;1.00
12557;DHT22;6344;49.932;8.308;2023-03-05T12:27:30;7.30;1.00
12557;DHT22;6344;49.932;8.308;2023-03-05T12:36:41;7.20;1.00
12557;DHT22;6344;49.932;8.308;2023-03-05T12:39:50;6.90;1.00
12557;DHT22;6344;49.932;8.308;2023-03-05T12:42:45;6.90;1.00
12557;DHT22;6344;49.932;8.308;2023-03-05T12:45:29;7.00;1.00
12557;DHT22;6344;49.932;8.308;2023-03-05T13:08:11;7.30;1.00
12557;DHT22;6344;49.932;8.308;2023-03-05T13:10:39;7.20;1.00
12557;DHT22;6344;49.932;8.308;2023-03-05T13:13:10;7.20;1.00
12557;DHT22;6344;49.932;8.308;2023-03-05T13:15:37;7.10;1.00
12557;DHT22;6344;49.932;8.308;2023-03-05T13:18:05;6.90;1.00
12557;DHT22;6344;49.932;8.308;2023-03-05T13:20:34;7.00;1.00
12557;DHT22;6344;49.932;8.308;2023-03-05T13:23:14;7.00;1.00
12557;DHT22;6344;49.932;8.308;2023-03-05T13:25:43;7.00;1.00
12557;DHT22;6344;49.932;8.308;2023-03-05T13:28:11;7.20;1.00
12557;DHT22;6344;49.932;8.308;2023-03-05T13:30:43;7.30;1.00
12557;DHT22;6344;49.932;8.308;2023-03-05T13:33:15;7.30;1.00
12557;DHT22;6344;49.932;8.308;2023-03-05T13:35:44;7.50;1.00
12557;DHT22;6344;49.932;8.308;2023-03-05T13:38:25;7.60;1.00
12557;DHT22;6344;49.932;8.308;2023-03-05T13:41:15;7.70;1.00
12557;DHT22;6344;49.932;8.308;2023-03-05T13:43:44;7.80;1.00
12557;DHT22;6344;49.932;8.308;2023-03-05T13:46:11;7.80;1.00
12557;DHT22;6344;49.932;8.308;2023-03-05T13:48:38;7.90;1.00
12557;DHT22;6344;49.932;8.308;2023-03-05T13:51:05;7.90;1.00
12557;DHT22;6344;49.932;8.308;2023-03-05T13:53:35;7.90;1.00
12557;DHT22;6344;49.932;8.308;2023-03-05T13:56:04;7.70;1.00
12557;DHT22;6344;49.932;8.308;2023-03-05T14:02:24;7.80;1.00
12557;DHT22;6344;49.932;8.308;2023-03-05T14:04:52;7.70;1.00
12557;DHT22;6344;49.932;8.308;2023-03-05T14:07:27;7.70;1.00
12557;DHT22;6344;49.932;8.308;2023-03-05T14:09:56;7.50;1.00
12557;DHT22;6344;49.932;8.308;2023-03-05T14:12:27;7.30;1.00
12557;DHT22;6344;49.932;8.308;2023-03-05T14:14:55;7.30;1.00
12557;DHT22;6344;49.932;8.308;2023-03-05T14:17:31;7.10;1.00
12557;DHT22;6344;49.932;8.308;2023-03-05T14:20:20;7.00;1.00
12557;DHT22;6344;49.932;8.308;2023-03-05T14:22:49;6.90;1.00
12557;DHT22;6344;49.932;8.308;2023-03-05T14:25:29;6.90;1.00
12557;DHT22;6344;49.932;8.308;2023-03-05T14:27:58;6.70;1.00
12557;DHT22;6344;49.932;8.308;2023-03-05T14:30:25;6.60;1.00
12557;DHT22;6344;49.932;8.308;2023-03-05T14:32:55;6.60;1.00
12557;DHT22;6344;49.932;8.308;2023-03-05T14:35:24;6.60;1.00
12557;DHT22;6344;49.932;8.308;2023-03-05T14:37:53;6.50;1.00
12557;DHT22;6344;49.932;8.308;2023-03-05T14:40:22;6.50;1.00
12557;DHT22;6344;49.932;8.308;2023-03-05T14:42:54;6.40;1.00
12557;DHT22;6344;49.932;8.308;2023-03-05T14:45:23;6.40;1.00
12557;DHT22;6344;49.932;8.308;2023-03-05T14:47:52;6.50;1.00
12557;DHT22;6344;49.932;8.308;2023-03-05T14:50:21;6.50;1.00
12557;DHT22;6344;49.932;8.308;2023-03-05T14:52:50;6.40;1.00
12557;DHT22;6344;49.932;8.308;2023-03-05T14:55:20;6.40;1.00
12557;DHT22;6344;49.932;8.308;2023-03-05T14:57:47;6.40;1.00
12557;DHT22;6344;49.932;8.308;2023-03-05T15:00:18;6.40;1.00
12557;DHT22;6344;49.932;8.308;2023-03-05T15:02:46;6.30;1.00
12557;DHT22;6344;49.932;8.308;2023-03-05T15:05:12;6.40;1.00
12557;DHT22;6344;49.932;8.308;2023-03-05T15:07:39;6.30;1.00
12557;DHT22;6344;49.932;8.308;2023-03-05T15:10:07;6.30;1.00
12557;DHT22;6344;49.932;8.308;2023-03-05T15:12:34;6.20;1.00
12557;DHT22;6344;49.932;8.308;2023-03-05T15:15:03;6.10;1.00
12557;DHT22;6344;49.932;8.308;2023-03-05T15:17:34;6.10;1.00
12557;DHT22;6344;49.932;8.308;2023-03-05T15:20:01;6.10;1.00
12557;DHT22;6344;49.932;8.308;2023-03-05T15:22:32;6.10;1.00
12557;DHT22;6344;49.932;8.308;2023-03-05T15:24:59;6.10;1.00
12557;DHT22;6344;49.932;8.308;2023-03-05T15:27:26;6.10;1.00
12557;DHT22;6344;49.932;8.308;2023-03-05T15:29:53;6.10;1.00
12557;DHT22;6344;49.932;8.308;2023-03-05T15:32:19;6.10;1.00
12557;DHT22;6344;49.932;8.308;2023-03-05T15:34:47;6.00;1.00
12557;DHT22;6344;49.932;8.308;2023-03-05T15:37:14;6.10;1.00
12557;DHT22;6344;49.932;8.308;2023-03-05T15:39:41;6.10;1.00
12557;DHT22;6344;49.932;8.308;2023-03-05T15:42:07;6.10;1.00
12557;DHT22;6344;49.932;8.308;2023-03-05T15:44:34;6.20;1.00
12557;DHT22;6344;49.932;8.308;2023-03-05T15:47:01;6.20;1.00
12557;DHT22;6344;49.932;8.308;2023-03-05T15:49:27;6.10;1.00
12557;DHT22;6344;49.932;8.308;2023-03-05T15:51:55;5.90;1.00
12557;DHT22;6344;49.932;8.308;2023-03-05T15:54:22;5.80;1.00
12557;DHT22;6344;49.932;8.308;2023-03-05T15:56:49;5.80;1.00
12557;DHT22;6344;49.932;8.308;2023-03-05T15:59:16;5.90;1.00
12557;DHT22;6344;49.932;8.308;2023-03-05T16:01:46;5.90;1.00
12557;DHT22;6344;49.932;8.308;2023-03-05T16:04:14;6.10;1.00
12557;DHT22;6344;49.932;8.308;2023-03-05T16:06:42;5.90;1.00
12557;DHT22;6344;49.932;8.308;2023-03-05T16:09:12;5.90;1.00
12557;DHT22;6344;49.932;8.308;2023-03-05T16:11:40;5.80;1.00
12557;DHT22;6344;49.932;8.308;2023-03-05T16:14:16;5.80;1.00
12557;DHT22;6344;49.932;8.308;2023-03-05T16:16:43;5.70;1.00
12557;DHT22;6344;49.932;8.308;2023-03-05T16:19:11;5.70;1.00
12557;DHT22;6344;49.932;8.308;2023-03-05T16:21:39;5.80;1.00
12557;DHT22;6344;49.932;8.308;2023-03-05T16:24:06;5.80;1.00
12557;DHT22;6344;49.932;8.308;2023-03-05T16:26:35;5.70;1.00
12557;DHT22;6344;49.932;8.308;2023-03-05T16:29:03;5.60;1.00
12557;DHT22;6344;49.932;8.308;2023-03-05T16:31:30;5.70;1.00
12557;DHT22;6344;49.932;8.308;2023-03-05T16:33:58;5.70;1.00
12557;DHT22;6344;49.932;8.308;2023-03-05T16:36:29;5.60;1.00
12557;DHT22;6344;49.932;8.308;2023-03-05T16:38:58;5.60;1.00
12557;DHT22;6344;49.932;8.308;2023-03-05T16:41:26;5.60;1.00
12557;DHT22;6344;49.932;8.308;2023-03-05T16:43:55;5.50;1.00
12557;DHT22;6344;49.932;8.308;2023-03-05T16:46:22;5.50;1.00
12557;DHT22;6344;49.932;8.308;2023-03-05T16:48:49;5.50;1.00
12557;DHT22;6344;49.932;8.308;2023-03-05T16:51:15;5.40;1.00
12557;DHT22;6344;49.932;8.308;2023-03-05T16:53:42;5.30;1.00
12557;DHT22;6344;49.932;8.308;2023-03-05T16:56:09;5.30;1.00
12557;DHT22;6344;49.932;8.308;2023-03-05T16:58:37;5.30;1.00